Blair, Wisconsin
Current Conditions -  °F | °C
As of 2:55 PM on Tuesday 25 Nov 2014 (Local Time) from KBCK Reporting Station
Clear Clear  
Wind Chill: 25°   Ceiling: Unl
Heat Index: 25°   Visibility: 10mi
Dew Point: 13°   Wind: 3mph
Humidity: 60%   Direction: 270°W
Pressure: 30.06"   Gusts: NA
Location:  44.29°N, 91.24°W
Report Text: KBCK 252055Z AUTO 27003KT 10SM CLR M04/M10 A3006 RMK AO2 T10371104
Loading
Personal Weather Stations






























Interactive Weather Map New forecast layout! Learn more

10-Day Weather Forecast

Advertisements
Track Severe Weather on mobile